Time;durP1;ratioP1;P1;durP2;ratioP2;P2;SDS_P1;SDS_P2;PMS_P1;PMS_P2;Temp;Humidity;BMP_temperature;BMP_pressure;BME280_temperature;BME280_humidity;BME280_pressure;Samples;Min_cycle;Max_cycle;Signal;HPM_P1;HPM_P2
2021/12/14 00:00:40;;;;;;;45.25;37.63;;;;;22.00;101560.00;;;;2099988;28;20771;-66
2021/12/14 00:01:48;;;;;;;40.85;36.45;;;;;22.00;101559.00;;;;2100422;28;20212;-66
2021/12/14 00:02:49;;;;;;;40.97;35.67;;;;;22.00;101549.00;;;;2088146;28;20644;-66
2021/12/14 00:03:52;;;;;;;42.50;37.80;;;;;22.00;101563.00;;;;2083708;28;20224;-66
2021/12/14 00:04:52;;;;;;;39.55;35.35;;;;;22.00;101562.00;;;;2083667;28;20290;-66
2021/12/14 00:05:53;;;;;;;40.17;35.93;;;;;22.00;101556.00;;;;2091396;28;20814;-66
2021/12/14 00:06:54;;;;;;;39.63;34.63;;;;;22.00;101551.00;;;;2091411;28;20224;-66
2021/12/14 00:07:56;;;;;;;38.60;34.50;;;;;22.00;101559.00;;;;2091062;28;20225;-66
2021/12/14 00:08:58;;;;;;;37.00;33.20;;;;;22.00;101548.00;;;;2100410;28;20638;-66
2021/12/14 00:10:12;;;;;;;38.95;34.88;;;;;22.00;101552.00;;;;2091606;28;20220;-65
2021/12/14 00:11:29;;;;;;;37.92;33.92;;;;;22.00;101560.00;;;;2093441;28;20358;-66
2021/12/14 00:12:42;;;;;;;37.55;32.20;;;;;22.00;101559.00;;;;2097641;28;20294;-66
2021/12/14 00:13:54;;;;;;;34.00;30.40;;;;;22.00;101557.00;;;;2099963;28;20220;-66
2021/12/14 00:15:04;;;;;;;33.92;30.33;;;;;22.00;101549.00;;;;2097829;28;20215;-65
2021/12/14 00:16:05;;;;;;;34.05;30.45;;;;;22.00;101549.00;;;;2100330;28;20571;-66
2021/12/14 00:17:05;;;;;;;32.00;28.70;;;;;22.00;101543.00;;;;2100560;28;20250;-66
2021/12/14 00:18:08;;;;;;;33.97;29.93;;;;;22.00;101547.00;;;;2100881;28;20220;-66
2021/12/14 00:19:08;;;;;;;32.35;28.95;;;;;22.00;101551.00;;;;2100955;28;20212;-66
2021/12/14 00:20:23;;;;;;;32.00;28.53;;;;;22.00;101558.00;;;;2092039;28;20216;-66
2021/12/14 00:21:29;;;;;;;32.85;28.23;;;;;21.90;101554.00;;;;2093951;28;20238;-66
2021/12/14 00:24:51;;;;;;;31.35;27.67;;;;;21.50;101560.00;;;;2096702;28;20777;-66
2021/12/14 00:25:52;;;;;;;34.30;27.87;;;;;21.50;101560.00;;;;2100509;28;20219;-66
2021/12/14 00:27:01;;;;;;;31.83;28.35;;;;;21.60;101562.00;;;;2100495;28;20269;-65
2021/12/14 00:28:19;;;;;;;29.45;26.40;;;;;21.70;101549.00;;;;2100681;28;20323;-65
2021/12/14 00:29:22;;;;;;;25.75;22.17;;;;;21.80;101555.00;;;;2097230;28;20568;-65
2021/12/14 00:30:22;;;;;;;28.25;22.75;;;;;21.90;101556.00;;;;2100018;28;20731;-65
2021/12/14 00:31:23;;;;;;;24.57;21.67;;;;;21.90;101557.00;;;;2100139;28;20211;-65
2021/12/14 00:32:26;;;;;;;21.87;19.60;;;;;21.90;101548.00;;;;2100438;28;20303;-65
2021/12/14 00:33:30;;;;;;;21.90;18.90;;;;;21.90;101550.00;;;;2091450;28;20275;-65
2021/12/14 00:34:37;;;;;;;20.10;17.98;;;;;21.90;101553.00;;;;2089018;28;20212;-65
2021/12/14 00:35:38;;;;;;;19.48;17.38;;;;;21.90;101561.00;;;;2100259;28;20242;-65
2021/12/14 00:36:38;;;;;;;21.58;16.70;;;;;21.90;101561.00;;;;2100473;28;20232;-65
2021/12/14 00:37:45;;;;;;;21.90;17.37;;;;;21.90;101559.00;;;;2100542;28;20294;-65
2021/12/14 00:38:49;;;;;;;19.55;17.55;;;;;21.90;101556.00;;;;2091560;28;20209;-65
2021/12/14 00:39:50;;;;;;;17.67;15.77;;;;;21.90;101554.00;;;;2092777;28;20231;-65
2021/12/14 00:40:54;;;;;;;18.27;16.37;;;;;21.80;101553.00;;;;2091649;28;20712;-65
2021/12/14 00:41:54;;;;;;;18.88;16.67;;;;;21.90;101552.00;;;;2092344;28;20509;-65
2021/12/14 00:42:55;;;;;;;20.13;17.27;;;;;21.80;101550.00;;;;2100753;28;20315;-65
2021/12/14 00:43:55;;;;;;;17.77;15.37;;;;;21.80;101547.00;;;;2100804;28;20282;-66
2021/12/14 00:44:56;;;;;;;18.03;15.70;;;;;21.80;101550.00;;;;2091793;28;20454;-65
2021/12/14 00:45:56;;;;;;;17.20;15.17;;;;;21.80;101544.00;;;;2091816;28;20208;-65
2021/12/14 00:46:56;;;;;;;16.47;14.73;;;;;21.80;101548.00;;;;2100463;28;20215;-65
2021/12/14 00:47:57;;;;;;;17.33;15.53;;;;;21.80;101543.00;;;;2100427;28;20749;-65
2021/12/14 00:48:57;;;;;;;17.03;15.10;;;;;21.80;101547.00;;;;2100412;28;20265;-65
2021/12/14 00:49:57;;;;;;;15.03;13.53;;;;;21.80;101546.00;;;;2100394;28;21184;-65
2021/12/14 00:50:59;;;;;;;15.20;13.67;;;;;21.80;101547.00;;;;2100165;28;20233;-65
2021/12/14 00:51:59;;;;;;;16.27;14.57;;;;;21.80;101548.00;;;;2100522;28;20207;-66
2021/12/14 00:53:00;;;;;;;15.93;14.20;;;;;21.80;101552.00;;;;2083119;28;20211;-65
2021/12/14 00:54:02;;;;;;;16.43;14.83;;;;;21.80;101548.00;;;;2082823;28;20297;-65
2021/12/14 00:55:05;;;;;;;14.73;13.23;;;;;21.80;101556.00;;;;2100553;28;20219;-65
2021/12/14 00:56:08;;;;;;;14.25;12.38;;;;;21.80;101550.00;;;;2087100;28;20219;-65
2021/12/14 00:57:09;;;;;;;15.38;13.65;;;;;21.80;101556.00;;;;2091687;28;20216;-66
2021/12/14 00:58:09;;;;;;;14.90;13.40;;;;;21.80;101549.00;;;;2099877;28;20253;-64
2021/12/14 00:59:12;;;;;;;14.63;12.80;;;;;21.80;101549.00;;;;2100144;28;20208;-65
2021/12/14 01:00:15;;;;;;;14.00;12.60;;;;;21.80;101546.00;;;;2100378;28;20212;-65
2021/12/14 01:01:21;;;;;;;14.38;12.88;;;;;21.80;101549.00;;;;2100237;28;20246;-65
2021/12/14 01:02:22;;;;;;;13.75;12.20;;;;;21.80;101543.00;;;;2096371;28;20219;-65
2021/12/14 01:03:23;;;;;;;12.95;11.65;;;;;21.80;101542.00;;;;2100251;28;20215;-65
2021/12/14 01:04:28;;;;;;;13.10;11.70;;;;;21.80;101536.00;;;;2100360;28;20694;-65
2021/12/14 01:05:31;;;;;;;12.75;11.52;;;;;21.80;101539.00;;;;2100354;28;20211;-65
2021/12/14 01:06:34;;;;;;;13.23;11.38;;;;;21.70;101532.00;;;;2091349;28;20247;-65
2021/12/14 01:07:35;;;;;;;12.15;10.85;;;;;21.80;101536.00;;;;2091517;28;20244;-65
2021/12/14 01:08:39;;;;;;;12.77;11.10;;;;;21.80;101534.00;;;;2100374;28;20234;-65
2021/12/14 01:09:41;;;;;;;12.30;11.10;;;;;21.80;101534.00;;;;2098591;28;20232;-66
2021/12/14 01:10:52;;;;;;;12.27;10.70;;;;;21.80;101532.00;;;;2100199;28;20963;-65
2021/12/14 01:11:53;;;;;;;11.80;10.60;;;;;21.70;101530.00;;;;2100716;28;20243;-65
2021/12/14 01:12:58;;;;;;;11.73;10.53;;;;;21.70;101535.00;;;;2100661;28;20226;-65
2021/12/14 01:14:05;;;;;;;11.27;10.07;;;;;21.70;101539.00;;;;2097007;28;20215;-66
2021/12/14 01:15:28;;;;;;;10.25;9.25;;;;;21.70;101536.00;;;;2100293;28;20298;-66
2021/12/14 01:16:47;;;;;;;11.23;10.00;;;;;21.70;101548.00;;;;2096015;28;20215;-65
2021/12/14 01:18:01;;;;;;;10.88;9.50;;;;;21.70;101547.00;;;;2096586;28;20265;-66
2021/12/14 01:19:21;;;;;;;10.50;9.40;;;;;21.70;101547.00;;;;2100268;28;20215;-65
2021/12/14 01:20:29;;;;;;;10.25;9.25;;;;;21.70;101537.00;;;;2097742;28;20222;-64
2021/12/14 01:22:47;;;;;;;9.13;8.23;;;;;21.70;101544.00;;;;2088506;28;20254;-65
2021/12/14 01:23:48;;;;;;;10.65;9.55;;;;;21.70;101530.00;;;;2099897;28;20219;-65
2021/12/14 01:25:03;;;;;;;10.05;8.90;;;;;21.70;101535.00;;;;2100241;28;20295;-66
2021/12/14 01:26:15;;;;;;;10.07;9.07;;;;;21.70;101533.00;;;;2097373;28;20223;-66
2021/12/14 01:27:18;;;;;;;10.40;9.25;;;;;21.70;101531.00;;;;2099816;28;20282;-66
2021/12/14 01:28:21;;;;;;;11.40;8.32;;;;;21.70;101542.00;;;;2100371;28;20220;-66
2021/12/14 01:29:22;;;;;;;9.38;8.48;;;;;21.70;101528.00;;;;2100211;28;20208;-66
2021/12/14 01:30:29;;;;;;;10.10;9.00;;;;;21.80;101535.00;;;;2100061;28;20203;-66
2021/12/14 01:31:34;;;;;;;12.25;9.13;;;;;21.80;101529.00;;;;2099856;28;20215;-66
2021/12/14 01:32:39;;;;;;;12.77;8.70;;;;;21.70;101524.00;;;;2100184;28;20312;-66
2021/12/14 01:33:42;;;;;;;9.70;8.70;;;;;21.80;101529.00;;;;2095931;28;20570;-66
2021/12/14 01:34:42;;;;;;;10.68;9.57;;;;;21.70;101526.00;;;;2100013;28;20305;-66
2021/12/14 01:35:45;;;;;;;9.03;8.13;;;;;21.70;101527.00;;;;2100143;28;20227;-66
2021/12/14 01:36:50;;;;;;;10.50;9.48;;;;;21.70;101534.00;;;;2087589;28;20212;-66
2021/12/14 01:38:01;;;;;;;10.40;8.98;;;;;21.70;101530.00;;;;2091920;28;20224;-66
2021/12/14 01:40:46;;;;;;;9.07;8.20;;;;;21.70;101544.00;;;;2099972;28;20211;-66
2021/12/14 01:41:40;;;;;;;9.52;7.40;;;;;21.70;101555.00;;;;2100405;28;20222;-66
2021/12/14 01:42:41;;;;;;;9.77;8.77;;;;;21.70;101564.00;;;;2088988;28;20736;-66
2021/12/14 01:43:51;;;;;;;9.20;8.30;;;;;21.70;101557.00;;;;2099059;28;20219;-66
2021/12/14 01:45:03;;;;;;;8.98;7.60;;;;;21.70;101572.00;;;;2090991;28;20235;-66
2021/12/14 01:46:14;;;;;;;8.13;7.40;;;;;21.70;101581.00;;;;2093161;28;20615;-66
2021/12/14 01:47:19;;;;;;;9.32;8.40;;;;;21.70;101582.00;;;;2097352;28;20216;-66
2021/12/14 01:48:19;;;;;;;9.15;6.97;;;;;21.60;101587.00;;;;2071626;28;20212;-66
2021/12/14 01:49:20;;;;;;;9.13;7.27;;;;;21.60;101588.00;;;;2090898;28;20211;-66
2021/12/14 01:50:29;;;;;;;7.93;7.20;;;;;21.60;101580.00;;;;2098989;28;20242;-66
2021/12/14 01:51:29;;;;;;;8.85;7.88;;;;;21.60;101568.00;;;;2096386;28;20253;-66
2021/12/14 01:52:31;;;;;;;8.00;6.77;;;;;21.60;101566.00;;;;2099489;28;20577;-66
2021/12/14 01:53:33;;;;;;;7.70;6.90;;;;;21.60;101572.00;;;;2099592;28;20207;-66
2021/12/14 01:54:39;;;;;;;8.05;7.25;;;;;21.60;101570.00;;;;2099508;28;20208;-66
2021/12/14 01:55:40;;;;;;;6.95;6.35;;;;;21.60;101587.00;;;;2100150;28;20231;-66
2021/12/14 01:56:40;;;;;;;6.90;6.20;;;;;21.60;101576.00;;;;2100048;28;20235;-66
2021/12/14 01:57:41;;;;;;;6.70;6.00;;;;;21.60;101580.00;;;;2100467;28;20214;-66
2021/12/14 01:58:45;;;;;;;8.10;6.87;;;;;21.60;101564.00;;;;2100458;28;20227;-66
2021/12/14 01:59:46;;;;;;;7.65;6.25;;;;;21.60;101572.00;;;;2100442;28;20228;-66
2021/12/14 02:00:55;;;;;;;7.00;6.30;;;;;21.60;101559.00;;;;2100143;28;20232;-66
2021/12/14 02:02:08;;;;;;;7.45;6.35;;;;;21.60;101562.00;;;;2100379;28;20237;-66
2021/12/14 02:03:10;;;;;;;6.72;6.13;;;;;21.60;101559.00;;;;2099082;28;20219;-66
2021/12/14 02:04:13;;;;;;;6.93;6.30;;;;;21.60;101556.00;;;;2101733;28;20306;-66
2021/12/14 02:05:26;;;;;;;7.40;6.70;;;;;21.50;101559.00;;;;2101745;28;20224;-66
2021/12/14 02:06:29;;;;;;;7.20;6.50;;;;;21.50;101550.00;;;;2098677;28;20208;-66
2021/12/14 02:07:29;;;;;;;5.90;5.28;;;;;21.50;101551.00;;;;2101685;28;20234;-66
2021/12/14 02:08:32;;;;;;;6.80;6.10;;;;;21.50;101553.00;;;;2099701;28;20215;-66
2021/12/14 02:09:33;;;;;;;6.35;5.75;;;;;21.60;101552.00;;;;2101700;28;20322;-66
2021/12/14 02:10:34;;;;;;;6.13;5.53;;;;;21.60;101551.00;;;;2101568;28;20269;-66
2021/12/14 02:11:38;;;;;;;7.22;5.70;;;;;21.50;101549.00;;;;2101779;28;20630;-66
2021/12/14 02:12:40;;;;;;;7.55;6.00;;;;;21.50;101548.00;;;;2102031;28;20204;-66
2021/12/14 02:13:44;;;;;;;5.95;5.38;;;;;21.50;101531.00;;;;2101395;28;20222;-66
2021/12/14 02:14:45;;;;;;;5.75;5.15;;;;;21.50;101536.00;;;;2101856;28;20282;-66
2021/12/14 02:15:46;;;;;;;6.03;5.43;;;;;21.50;101532.00;;;;2101669;28;20226;-66
2021/12/14 02:16:54;;;;;;;6.57;5.50;;;;;21.50;101536.00;;;;2101957;28;20238;-66
2021/12/14 02:17:56;;;;;;;6.05;5.32;;;;;21.50;101541.00;;;;2097766;28;20220;-66
2021/12/14 02:19:16;;;;;;;7.32;5.03;;;;;21.50;101541.00;;;;2101627;28;20642;-66
2021/12/14 02:20:20;;;;;;;7.88;5.65;;;;;21.50;101537.00;;;;2097242;28;20317;-66
2021/12/14 02:21:21;;;;;;;6.38;5.50;;;;;21.50;101528.00;;;;2101509;28;20682;-66
2021/12/14 02:22:21;;;;;;;5.87;5.23;;;;;21.50;101515.00;;;;2101599;28;20237;-66
2021/12/14 02:23:21;;;;;;;6.50;5.77;;;;;21.50;101522.00;;;;2101526;28;20208;-66
2021/12/14 02:24:22;;;;;;;5.77;4.97;;;;;21.50;101519.00;;;;2101584;28;20558;-66
2021/12/14 02:25:23;;;;;;;5.90;5.30;;;;;21.50;101514.00;;;;2101188;28;20576;-66
2021/12/14 02:26:27;;;;;;;6.13;5.03;;;;;21.50;101516.00;;;;2101566;28;20450;-66
2021/12/14 02:27:38;;;;;;;5.45;4.95;;;;;21.50;101517.00;;;;2101616;28;20208;-66
2021/12/14 02:28:39;;;;;;;5.00;4.50;;;;;21.50;101505.00;;;;2101944;28;20579;-66
2021/12/14 02:29:41;;;;;;;9.37;5.13;;;;;21.40;101490.00;;;;2101930;28;20302;-66
2021/12/14 02:30:42;;;;;;;5.55;4.45;;;;;21.50;101512.00;;;;2101640;28;20242;-66
2021/12/14 02:31:42;;;;;;;6.00;5.40;;;;;21.40;101511.00;;;;2101888;28;20560;-66
2021/12/14 02:32:42;;;;;;;5.23;4.70;;;;;21.40;101511.00;;;;2101837;28;20218;-66
2021/12/14 02:33:44;;;;;;;6.03;5.00;;;;;21.40;101510.00;;;;2101558;28;20219;-66
2021/12/14 02:34:55;;;;;;;5.95;5.28;;;;;21.40;101498.00;;;;2092504;28;20354;-66
2021/12/14 02:35:56;;;;;;;6.43;5.32;;;;;21.40;101498.00;;;;2093985;28;20208;-66
2021/12/14 02:36:57;;;;;;;4.80;4.40;;;;;21.40;101495.00;;;;2101300;28;20236;-66
2021/12/14 02:38:02;;;;;;;5.10;4.60;;;;;21.40;101488.00;;;;2101470;28;20219;-66
2021/12/14 02:39:12;;;;;;;5.32;4.82;;;;;21.40;101493.00;;;;2088816;28;20219;-66
2021/12/14 02:40:20;;;;;;;5.10;4.65;;;;;21.40;101493.00;;;;2093868;28;20216;-66
2021/12/14 02:41:20;;;;;;;6.57;5.00;;;;;21.40;101485.00;;;;2101402;28;20215;-66
2021/12/14 02:42:24;;;;;;;5.10;4.60;;;;;21.40;101492.00;;;;2100061;28;20731;-66
2021/12/14 02:43:39;;;;;;;4.85;4.30;;;;;21.40;101483.00;;;;2088595;28;20216;-66
2021/12/14 02:44:40;;;;;;;4.18;3.78;;;;;21.40;101483.00;;;;2094481;28;20208;-66
2021/12/14 02:45:40;;;;;;;4.97;4.47;;;;;21.40;101478.00;;;;2101362;28;20211;-66
2021/12/14 02:46:44;;;;;;;4.47;4.07;;;;;21.40;101475.00;;;;2101197;28;20208;-66
2021/12/14 02:47:44;;;;;;;4.47;4.07;;;;;21.40;101478.00;;;;2089118;28;20984;-66
2021/12/14 02:48:49;;;;;;;4.63;4.13;;;;;21.40;101467.00;;;;2091658;28;20220;-66
2021/12/14 02:49:49;;;;;;;4.63;3.92;;;;;21.40;101461.00;;;;2101437;28;20207;-66
2021/12/14 02:50:50;;;;;;;4.60;4.10;;;;;21.40;101471.00;;;;2101043;28;20667;-66
2021/12/14 02:51:52;;;;;;;5.30;4.80;;;;;21.40;101491.00;;;;2101318;28;20548;-66
2021/12/14 02:52:52;;;;;;;4.50;3.97;;;;;21.40;101487.00;;;;2101378;28;20232;-66
2021/12/14 02:53:56;;;;;;;4.40;3.87;;;;;21.40;101475.00;;;;2101494;28;20226;-66
2021/12/14 02:55:00;;;;;;;4.80;4.35;;;;;21.40;101478.00;;;;2097668;28;20302;-66
2021/12/14 02:56:00;;;;;;;4.55;4.15;;;;;21.40;101488.00;;;;2100427;28;20207;-66
2021/12/14 02:57:16;;;;;;;4.17;3.77;;;;;21.40;101494.00;;;;2100645;28;20234;-66
2021/12/14 02:58:16;;;;;;;4.38;3.97;;;;;21.40;101491.00;;;;2097174;28;20207;-66
2021/12/14 02:59:25;;;;;;;4.30;3.60;;;;;21.30;101491.00;;;;2101124;28;20257;-66
2021/12/14 03:00:32;;;;;;;3.70;3.40;;;;;21.40;101494.00;;;;2100717;28;20234;-66
2021/12/14 03:01:32;;;;;;;4.43;4.03;;;;;21.40;101483.00;;;;2081359;28;20703;-66
2021/12/14 03:02:33;;;;;;;3.80;3.40;;;;;21.40;101487.00;;;;2091854;28;20229;-66
2021/12/14 03:03:33;;;;;;;4.22;3.83;;;;;21.40;101480.00;;;;2088243;28;20303;-66
2021/12/14 03:04:43;;;;;;;4.47;3.77;;;;;21.40;101485.00;;;;2082909;28;20209;-66
2021/12/14 03:05:44;;;;;;;4.25;3.85;;;;;21.30;101490.00;;;;2093489;28;20227;-66
2021/12/14 03:06:55;;;;;;;4.40;4.00;;;;;21.30;101490.00;;;;2091434;28;20228;-66
2021/12/14 03:08:28;;;;;;;3.85;3.45;;;;;21.30;101494.00;;;;2089167;28;20793;-66
2021/12/14 03:11:12;;;;;;;3.95;3.58;;;;;21.30;101480.00;;;;2098578;28;20200;-66
2021/12/14 03:12:15;;;;;;;3.65;3.35;;;;;21.30;101479.00;;;;2096910;28;20218;-66
2021/12/14 03:13:16;;;;;;;4.38;3.97;;;;;21.30;101475.00;;;;2100881;28;20211;-66
2021/12/14 03:14:16;;;;;;;4.10;3.70;;;;;21.30;101468.00;;;;2099724;28;20200;-66
2021/12/14 03:15:18;;;;;;;4.10;3.70;;;;;21.30;101466.00;;;;2100790;28;20214;-66
2021/12/14 03:16:24;;;;;;;5.32;3.80;;;;;21.30;101454.00;;;;2100490;28;20211;-66
2021/12/14 03:17:24;;;;;;;3.80;3.50;;;;;21.30;101450.00;;;;2100757;28;20218;-66
2021/12/14 03:18:33;;;;;;;4.20;3.80;;;;;21.20;101451.00;;;;2100849;28;20213;-66
2021/12/14 03:19:33;;;;;;;4.18;3.78;;;;;21.30;101449.00;;;;2097782;28;20207;-66
2021/12/14 03:20:40;;;;;;;3.63;3.33;;;;;21.30;101442.00;;;;2100290;28;20700;-66
2021/12/14 03:21:45;;;;;;;4.40;3.88;;;;;21.30;101454.00;;;;2091296;28;20232;-66
2021/12/14 03:23:10;;;;;;;4.65;3.40;;;;;21.30;101450.00;;;;2100927;28;20220;-66
2021/12/14 03:24:13;;;;;;;5.28;3.72;;;;;21.30;101448.00;;;;2100839;28;20607;-66
2021/12/14 03:25:15;;;;;;;3.95;3.22;;;;;21.20;101456.00;;;;2087627;28;20770;-66
2021/12/14 03:26:17;;;;;;;4.97;3.20;;;;;21.30;101458.00;;;;2091958;28;20215;-66
2021/12/14 03:27:17;;;;;;;3.80;3.30;;;;;21.30;101465.00;;;;2099839;28;20216;-66
2021/12/14 03:28:18;;;;;;;3.73;3.43;;;;;21.20;101459.00;;;;2100725;28;20682;-66
2021/12/14 03:29:25;;;;;;;4.10;3.75;;;;;21.30;101473.00;;;;2100513;28;20211;-66
2021/12/14 03:30:25;;;;;;;3.80;3.50;;;;;21.30;101470.00;;;;2100626;28;20250;-66
2021/12/14 03:31:32;;;;;;;5.10;3.30;;;;;21.30;101464.00;;;;2100962;28;20671;-66
2021/12/14 03:32:33;;;;;;;3.70;3.40;;;;;21.20;101457.00;;;;2101156;28;20760;-66
2021/12/14 03:33:36;;;;;;;3.80;3.40;;;;;21.30;101462.00;;;;2101500;28;20216;-66
2021/12/14 03:34:37;;;;;;;4.05;3.63;;;;;21.30;101456.00;;;;2101302;28;20770;-66
2021/12/14 03:36:03;;;;;;;3.50;3.20;;;;;21.20;101456.00;;;;2101055;28;20208;-66
2021/12/14 03:37:05;;;;;;;3.90;3.45;;;;;21.20;101455.00;;;;2099016;28;20227;-66
2021/12/14 03:38:21;;;;;;;4.25;3.78;;;;;21.20;101452.00;;;;2100956;28;20213;-66
2021/12/14 03:39:22;;;;;;;4.28;3.33;;;;;21.20;101457.00;;;;2098999;28;20215;-66
2021/12/14 03:40:22;;;;;;;4.07;3.67;;;;;21.20;101456.00;;;;2100857;28;21767;-65
2021/12/14 03:41:31;;;;;;;3.70;3.40;;;;;21.20;101466.00;;;;2101018;28;20216;-66
2021/12/14 03:42:37;;;;;;;3.75;2.85;;;;;21.20;101463.00;;;;2097262;28;20220;-66
2021/12/14 03:43:39;;;;;;;3.85;3.40;;;;;21.20;101471.00;;;;2100406;28;20207;-66
2021/12/14 03:44:42;;;;;;;3.47;3.17;;;;;21.20;101471.00;;;;2100921;28;20216;-66
2021/12/14 03:45:42;;;;;;;4.25;3.75;;;;;21.20;101478.00;;;;2101121;28;20692;-66
2021/12/14 03:46:54;;;;;;;3.40;2.87;;;;;21.20;101483.00;;;;2101018;28;20211;-66
2021/12/14 03:47:57;;;;;;;3.20;2.90;;;;;21.20;101475.00;;;;2098151;28;20614;-66
2021/12/14 03:48:57;;;;;;;3.95;3.55;;;;;21.20;101477.00;;;;2091900;28;20212;-66
2021/12/14 03:50:00;;;;;;;3.73;3.10;;;;;21.20;101483.00;;;;2091893;28;20269;-66
2021/12/14 03:51:01;;;;;;;4.32;3.63;;;;;21.20;101485.00;;;;2100218;28;20215;-66
2021/12/14 03:52:01;;;;;;;2.87;2.63;;;;;21.20;101490.00;;;;2100662;28;20714;-66
2021/12/14 03:53:02;;;;;;;4.57;3.10;;;;;21.20;101452.00;;;;2100596;28;20249;-66
2021/12/14 03:54:03;;;;;;;3.37;2.93;;;;;21.20;101489.00;;;;2100950;28;20245;-66
2021/12/14 03:55:13;;;;;;;3.30;3.00;;;;;21.20;101491.00;;;;2100858;28;20266;-66
2021/12/14 03:56:13;;;;;;;3.75;3.45;;;;;21.20;101489.00;;;;2100723;28;20215;-66
2021/12/14 03:57:13;;;;;;;3.47;3.17;;;;;21.20;101489.00;;;;2100630;28;20227;-66
2021/12/14 03:58:20;;;;;;;4.03;3.63;;;;;21.20;101487.00;;;;2100918;28;20220;-66
2021/12/14 03:59:21;;;;;;;3.47;3.05;;;;;21.20;101488.00;;;;2096896;28;20203;-66
2021/12/14 04:00:25;;;;;;;4.32;3.38;;;;;21.20;101484.00;;;;2100613;28;20292;-66
2021/12/14 04:01:28;;;;;;;3.40;3.10;;;;;21.20;101488.00;;;;2091888;28;20236;-66
2021/12/14 04:02:28;;;;;;;3.40;3.10;;;;;21.20;101477.00;;;;2092212;28;20208;-66
2021/12/14 04:03:29;;;;;;;3.90;3.50;;;;;21.20;101485.00;;;;2100846;28;20579;-66
2021/12/14 04:04:35;;;;;;;4.20;3.80;;;;;21.20;101484.00;;;;2103832;28;20224;-66
2021/12/14 04:05:36;;;;;;;3.45;3.15;;;;;21.20;101478.00;;;;2096929;28;20207;-66
2021/12/14 04:06:38;;;;;;;3.35;3.10;;;;;21.20;101481.00;;;;2100526;28;20212;-66
2021/12/14 04:07:41;;;;;;;3.50;3.00;;;;;21.10;101477.00;;;;2100782;28;20745;-66
2021/12/14 04:08:42;;;;;;;3.45;3.15;;;;;21.20;101492.00;;;;2100802;28;20211;-66
2021/12/14 04:09:42;;;;;;;3.20;2.90;;;;;21.20;101494.00;;;;2100798;28;20231;-66
2021/12/14 04:10:44;;;;;;;3.83;3.40;;;;;21.10;101489.00;;;;2100419;28;20307;-66
2021/12/14 04:11:45;;;;;;;4.10;3.70;;;;;21.20;101497.00;;;;2091814;28;20300;-66
2021/12/14 04:12:45;;;;;;;3.50;3.17;;;;;21.10;101495.00;;;;2083535;28;20336;-66
2021/12/14 04:13:48;;;;;;;4.43;4.00;;;;;21.10;101495.00;;;;2092005;28;20212;-66
2021/12/14 04:14:51;;;;;;;3.25;3.00;;;;;21.10;101494.00;;;;2100894;28;20255;-66
2021/12/14 04:15:51;;;;;;;4.00;3.60;;;;;21.10;101496.00;;;;2101088;28;20208;-66
2021/12/14 04:16:52;;;;;;;3.93;3.47;;;;;21.10;101496.00;;;;2101046;28;20247;-66
2021/12/14 04:17:52;;;;;;;4.97;3.80;;;;;21.10;101493.00;;;;2101063;28;20577;-66
2021/12/14 04:18:53;;;;;;;4.67;4.10;;;;;21.10;101493.00;;;;2101049;28;20659;-66
2021/12/14 04:19:53;;;;;;;4.30;3.90;;;;;21.10;101497.00;;;;2100996;28;20717;-65
2021/12/14 04:20:55;;;;;;;3.97;3.20;;;;;21.10;101490.00;;;;2100635;28;20569;-66
2021/12/14 04:22:01;;;;;;;4.00;3.70;;;;;21.10;101488.00;;;;2091659;28;20216;-66
2021/12/14 04:23:01;;;;;;;4.03;3.63;;;;;21.10;101485.00;;;;2084137;28;20236;-66
2021/12/14 04:24:02;;;;;;;4.40;4.00;;;;;21.10;101481.00;;;;2091729;28;20223;-66
2021/12/14 04:25:05;;;;;;;4.30;3.90;;;;;21.10;101484.00;;;;2100624;28;20261;-66
2021/12/14 04:26:06;;;;;;;4.32;3.92;;;;;21.10;101483.00;;;;2100177;28;20307;-66
2021/12/14 04:27:17;;;;;;;4.88;4.38;;;;;21.10;101484.00;;;;2100665;28;20216;-66
2021/12/14 04:28:19;;;;;;;4.72;4.03;;;;;21.10;101481.00;;;;2097327;28;20217;-66
2021/12/14 04:29:20;;;;;;;4.90;4.40;;;;;21.10;101472.00;;;;2100736;28;20223;-66
2021/12/14 04:30:21;;;;;;;4.80;3.93;;;;;21.10;101479.00;;;;2100354;28;20260;-66
2021/12/14 04:31:22;;;;;;;3.83;3.53;;;;;21.10;101481.00;;;;2091561;28;20710;-66
2021/12/14 04:32:22;;;;;;;4.70;4.30;;;;;21.10;101486.00;;;;2091680;28;20208;-66
2021/12/14 04:33:26;;;;;;;4.20;3.77;;;;;21.10;101492.00;;;;2100341;28;20228;-66
2021/12/14 04:34:28;;;;;;;4.70;3.58;;;;;21.00;101494.00;;;;2100823;28;20224;-66
2021/12/14 04:35:33;;;;;;;4.45;4.05;;;;;21.10;101497.00;;;;2100837;28;20816;-66
2021/12/14 04:36:34;;;;;;;5.38;4.88;;;;;21.10;101496.00;;;;2100772;28;20226;-66
2021/12/14 04:37:39;;;;;;;4.43;4.03;;;;;21.10;101500.00;;;;2100864;28;20212;-66
2021/12/14 04:38:49;;;;;;;4.40;4.00;;;;;21.00;101497.00;;;;2100766;28;20240;-66
2021/12/14 04:40:00;;;;;;;4.53;4.13;;;;;21.00;101499.00;;;;2097239;28;20215;-66
2021/12/14 04:51:59;;;;;;;4.93;4.13;;;;;21.00;101500.00;;;;2100179;28;20682;-66
2021/12/14 04:53:15;;;;;;;4.32;3.92;;;;;21.00;101497.00;;;;2100827;28;20575;-65
2021/12/14 04:54:15;;;;;;;5.13;4.30;;;;;21.00;101494.00;;;;2096968;28;20262;-66
2021/12/14 04:55:15;;;;;;;5.50;3.80;;;;;21.00;101492.00;;;;2100456;28;20280;-66
2021/12/14 04:56:19;;;;;;;5.37;4.77;;;;;21.00;101497.00;;;;2100482;28;20210;-66
2021/12/14 04:57:31;;;;;;;4.30;3.90;;;;;21.00;101494.00;;;;2091194;28;20303;-66
2021/12/14 04:58:34;;;;;;;4.95;4.30;;;;;21.00;101501.00;;;;2089468;28;20208;-66
2021/12/14 04:59:35;;;;;;;4.43;4.00;;;;;21.00;101494.00;;;;2091194;28;20321;-66
2021/12/14 05:00:42;;;;;;;4.97;4.47;;;;;21.00;101492.00;;;;2091188;28;20287;-65
2021/12/14 05:01:44;;;;;;;5.10;4.60;;;;;21.00;101496.00;;;;2092510;28;20224;-66
2021/12/14 05:02:44;;;;;;;4.90;4.22;;;;;21.00;101495.00;;;;2100230;28;20288;-65
2021/12/14 05:03:56;;;;;;;5.63;4.67;;;;;21.00;101495.00;;;;2100475;28;20733;-66
2021/12/14 05:04:57;;;;;;;4.85;4.18;;;;;21.00;101497.00;;;;2100060;28;20698;-66
2021/12/14 05:06:10;;;;;;;4.73;4.23;;;;;21.00;101503.00;;;;2100635;28;20216;-66
2021/12/14 05:09:34;;;;;;;5.10;4.60;;;;;21.00;101494.00;;;;2100372;28;20204;-66
2021/12/14 05:10:34;;;;;;;5.13;4.63;;;;;21.00;101499.00;;;;2087811;28;20909;-66
2021/12/14 05:11:34;;;;;;;5.87;5.37;;;;;21.00;101503.00;;;;2091389;28;20222;-66
2021/12/14 05:12:35;;;;;;;4.83;4.37;;;;;21.00;101501.00;;;;2091390;28;20219;-66
2021/12/14 05:13:41;;;;;;;5.40;4.90;;;;;21.00;101500.00;;;;2100349;28;20211;-66
2021/12/14 05:14:43;;;;;;;5.65;5.15;;;;;21.00;101514.00;;;;2100409;28;20243;-66
2021/12/14 05:15:43;;;;;;;5.97;5.20;;;;;21.00;101496.00;;;;2100042;28;20216;-66
2021/12/14 05:16:43;;;;;;;5.27;4.77;;;;;21.00;101494.00;;;;2100173;28;20240;-66
2021/12/14 05:17:44;;;;;;;5.50;5.00;;;;;21.00;101494.00;;;;2100513;28;20239;-66
2021/12/14 05:18:52;;;;;;;5.07;4.67;;;;;21.00;101492.00;;;;2100465;28;20239;-66
2021/12/14 05:19:53;;;;;;;5.90;5.25;;;;;21.00;101493.00;;;;2100439;28;20227;-66
2021/12/14 05:20:53;;;;;;;5.17;4.73;;;;;21.00;101494.00;;;;2100215;28;20226;-66
2021/12/14 05:21:54;;;;;;;5.27;4.80;;;;;21.00;101494.00;;;;2100664;28;20212;-66
2021/12/14 05:22:54;;;;;;;5.30;4.80;;;;;21.00;101500.00;;;;2091536;28;20689;-66
2021/12/14 05:23:55;;;;;;;5.97;5.20;;;;;21.00;101503.00;;;;2091740;28;20224;-66
2021/12/14 05:25:00;;;;;;;6.50;5.90;;;;;21.00;101504.00;;;;2100276;28;20290;-66
2021/12/14 05:26:02;;;;;;;6.28;5.68;;;;;21.00;101502.00;;;;2100193;28;20456;-66
2021/12/14 05:27:04;;;;;;;6.00;5.40;;;;;21.00;101499.00;;;;2098529;28;20219;-66
2021/12/14 05:28:05;;;;;;;5.03;4.63;;;;;21.00;101488.00;;;;2100263;28;20227;-66
2021/12/14 05:29:07;;;;;;;6.10;5.50;;;;;21.00;101496.00;;;;2100218;28;20678;-66
2021/12/14 05:30:15;;;;;;;5.50;5.00;;;;;21.00;101487.00;;;;2100233;28;20208;-66
2021/12/14 05:31:16;;;;;;;5.60;5.10;;;;;20.90;101490.00;;;;2096664;28;20211;-66
2021/12/14 05:32:18;;;;;;;5.23;4.80;;;;;20.90;101485.00;;;;2100220;28;20581;-66
2021/12/14 05:33:26;;;;;;;5.85;5.25;;;;;21.00;101488.00;;;;2100184;28;20208;-66
2021/12/14 05:34:27;;;;;;;5.47;4.97;;;;;21.00;101479.00;;;;2100236;28;20325;-65